createdAt,value
2024-01-22T00:04:03.878Z,0
2024-01-22T00:09:08.026Z,0
2024-01-22T00:14:12.141Z,0
2024-01-22T00:19:16.399Z,0
2024-01-22T00:24:20.433Z,0
2024-01-22T00:29:24.561Z,0
2024-01-22T00:34:28.841Z,0
2024-01-22T00:39:32.907Z,0
2024-01-22T00:44:37.081Z,0
2024-01-22T00:49:41.289Z,0
2024-01-22T00:54:45.352Z,0
2024-01-22T00:59:49.558Z,0
2024-01-22T01:04:53.766Z,0
2024-01-22T01:09:57.842Z,0
2024-01-22T01:15:02.091Z,0
2024-01-22T01:20:06.232Z,0
2024-01-22T01:25:10.371Z,0
2024-01-22T01:30:14.584Z,0
2024-01-22T01:35:18.653Z,0
2024-01-22T01:40:22.830Z,0
2024-01-22T01:45:26.985Z,0
2024-01-22T01:50:31.150Z,0
2024-01-22T01:55:35.321Z,0
2024-01-22T02:00:39.699Z,0
2024-01-22T02:05:43.708Z,0
2024-01-22T02:10:47.904Z,0
2024-01-22T02:15:51.973Z,0
2024-01-22T02:20:56.194Z,0
2024-01-22T02:26:00.341Z,0
2024-01-22T02:31:04.479Z,0
2024-01-22T02:36:08.664Z,0
2024-01-22T02:41:12.775Z,0
2024-01-22T02:46:16.948Z,0
2024-01-22T02:51:21.171Z,0
2024-01-22T02:56:25.300Z,0
2024-01-22T03:01:29.439Z,0
2024-01-22T03:06:33.684Z,0
2024-01-22T03:11:37.796Z,0
2024-01-22T03:16:41.938Z,0
2024-01-22T03:21:46.067Z,0
2024-01-22T03:26:50.341Z,0
2024-01-22T03:31:54.410Z,0
2024-01-22T03:36:58.571Z,0
2024-01-22T03:42:02.805Z,0
2024-01-22T03:47:06.933Z,0
2024-01-22T03:52:11.057Z,0
2024-01-22T03:57:15.322Z,0
2024-01-22T04:02:19.400Z,0
2024-01-22T04:07:23.591Z,0
2024-01-22T04:12:27.719Z,0
2024-01-22T04:17:31.923Z,0
2024-01-22T04:22:36.013Z,0
2024-01-22T04:27:40.199Z,0
2024-01-22T04:32:44.491Z,0
2024-01-22T04:37:48.513Z,0
2024-01-22T04:42:52.655Z,0
2024-01-22T04:47:56.937Z,0
2024-01-22T04:52:59.096Z,0
2024-01-22T04:58:03.313Z,0
2024-01-22T05:03:07.546Z,0
2024-01-22T05:08:11.619Z,0
2024-01-22T05:13:15.762Z,0
2024-01-22T05:18:22.697Z,0
2024-01-22T05:23:24.132Z,0
2024-01-22T05:28:28.237Z,0
2024-01-22T05:33:32.581Z,0
2024-01-22T05:38:36.567Z,0
2024-01-22T05:43:40.731Z,0
2024-01-22T05:48:45.001Z,0
2024-01-22T05:53:49.107Z,0
2024-01-22T05:58:53.254Z,0
2024-01-22T06:03:57.476Z,0
2024-01-22T06:09:01.628Z,0
2024-01-22T06:14:05.751Z,0
2024-01-22T06:19:10.045Z,0
2024-01-22T06:24:14.128Z,0
2024-01-22T06:29:18.253Z,0
2024-01-22T06:34:22.484Z,0
2024-01-22T06:39:26.546Z,0
2024-01-22T06:44:30.708Z,0
2024-01-22T06:49:34.885Z,0
2024-01-22T06:54:39.005Z,0
2024-01-22T06:59:43.236Z,0
2024-01-22T07:04:47.399Z,1
2024-01-22T07:09:51.513Z,3
2024-01-22T07:14:55.694Z,10
2024-01-22T07:19:59.863Z,11
2024-01-22T07:25:03.977Z,14
2024-01-22T07:30:08.212Z,35
2024-01-22T07:35:14.515Z,22
2024-01-22T07:40:16.484Z,45
2024-01-22T07:45:20.711Z,55
2024-01-22T07:50:24.866Z,97
2024-01-22T07:55:28.969Z,90
2024-01-22T08:00:33.191Z,164
2024-01-22T08:05:37.407Z,188
2024-01-22T08:10:41.499Z,145
2024-01-22T08:15:45.627Z,289
2024-01-22T08:20:49.802Z,560
2024-01-22T08:25:53.958Z,475
2024-01-22T08:31:00.120Z,933
2024-01-22T08:36:02.357Z,636
2024-01-22T08:41:06.429Z,1008
2024-01-22T08:46:10.571Z,1150
2024-01-22T08:51:14.865Z,1426
2024-01-22T08:56:18.911Z,2330
2024-01-22T09:01:23.088Z,1624
2024-01-22T09:06:27.276Z,2208
2024-01-22T09:11:31.437Z,3593
2024-01-22T09:16:35.562Z,2498
2024-01-22T09:21:39.725Z,2546
2024-01-22T09:26:43.917Z,2050
2024-01-22T09:31:48.168Z,1069
2024-01-22T09:36:52.243Z,2689
2024-01-22T09:41:56.407Z,2966
2024-01-22T09:47:00.554Z,2449
2024-01-22T09:52:04.684Z,2187
2024-01-22T09:57:08.873Z,3281
2024-01-22T10:02:13.002Z,3537
2024-01-22T10:07:17.276Z,2597
2024-01-22T10:12:21.415Z,2809
2024-01-22T10:17:25.517Z,1876
2024-01-22T10:22:27.805Z,2010
2024-01-22T10:27:32.080Z,2897
2024-01-22T10:32:36.139Z,2773
2024-01-22T10:37:40.229Z,4246
2024-01-22T10:42:44.393Z,3827
2024-01-22T10:47:48.688Z,3595
2024-01-22T10:52:52.717Z,3687
2024-01-22T10:57:56.925Z,2453
2024-01-22T11:03:01.089Z,2274
2024-01-22T11:08:05.189Z,2486
2024-01-22T11:13:09.365Z,4718
2024-01-22T11:18:13.779Z,3280
2024-01-22T11:23:17.701Z,1910
2024-01-22T11:28:21.855Z,3217
2024-01-22T11:33:26.189Z,1586
2024-01-22T11:38:30.175Z,1993
2024-01-22T11:43:34.352Z,2689
2024-01-22T11:48:38.683Z,2245
2024-01-22T11:53:42.646Z,2054
2024-01-22T11:58:46.810Z,2606
2024-01-22T12:03:50.965Z,2456
2024-01-22T12:08:55.131Z,3440
2024-01-22T12:14:00.765Z,3605
2024-01-22T12:19:03.504Z,3461
2024-01-22T12:24:07.660Z,3035
2024-01-22T12:29:11.770Z,1849
2024-01-22T12:34:16.226Z,1834
2024-01-22T12:39:20.166Z,1995
2024-01-22T12:44:24.313Z,659
2024-01-22T12:49:28.532Z,2611
2024-01-22T12:54:32.680Z,3533
2024-01-22T12:59:36.755Z,2739
2024-01-22T13:04:40.936Z,1945
2024-01-22T13:09:45.188Z,423
2024-01-22T13:14:49.363Z,480
2024-01-22T13:19:53.439Z,1505
2024-01-22T13:24:57.600Z,1096
2024-01-22T13:30:01.816Z,1305
2024-01-22T13:35:05.940Z,920
2024-01-22T13:40:10.038Z,1045
2024-01-22T13:45:14.257Z,2296
2024-01-22T13:50:18.442Z,2063
2024-01-22T13:55:22.576Z,1809
2024-01-22T14:00:26.895Z,1647
2024-01-22T14:05:30.889Z,1977
2024-01-22T14:10:35.073Z,1851
2024-01-22T14:15:39.174Z,1799
2024-01-22T14:20:43.453Z,1840
2024-01-22T14:25:47.552Z,1914
2024-01-22T14:30:51.724Z,1805
2024-01-22T14:35:55.916Z,2091
2024-01-22T14:40:59.976Z,3829
2024-01-22T14:46:04.156Z,3160
2024-01-22T14:51:08.323Z,1950
2024-01-22T14:56:12.510Z,783
2024-01-22T15:01:16.691Z,903
2024-01-22T15:06:20.906Z,791
2024-01-22T15:11:24.960Z,1097
2024-01-22T15:16:29.251Z,819
2024-01-22T15:21:33.315Z,1380
2024-01-22T15:26:37.493Z,1111
2024-01-22T15:31:41.648Z,655
2024-01-22T15:36:45.774Z,537
2024-01-22T15:41:49.963Z,454
2024-01-22T15:46:57.561Z,353
2024-01-22T15:51:56.359Z,270
2024-01-22T15:57:00.631Z,269
2024-01-22T16:02:04.688Z,191
2024-01-22T16:07:12.286Z,130
2024-01-22T16:12:13.114Z,68
2024-01-22T16:17:17.217Z,35
2024-01-22T16:22:19.454Z,15
2024-01-22T16:27:23.727Z,9
2024-01-22T16:32:27.843Z,4
2024-01-22T16:37:31.992Z,0
2024-01-22T16:42:36.189Z,0
2024-01-22T16:47:40.302Z,0
2024-01-22T16:52:44.434Z,0
2024-01-22T16:57:48.616Z,0
2024-01-22T17:02:52.810Z,0
2024-01-22T17:07:56.926Z,0
2024-01-22T17:13:01.097Z,0
2024-01-22T17:18:05.284Z,0
2024-01-22T17:23:09.428Z,0
2024-01-22T17:28:13.558Z,0
2024-01-22T17:33:17.911Z,0
2024-01-22T17:38:21.943Z,0
2024-01-22T17:43:26.067Z,0
2024-01-22T17:48:30.492Z,0
2024-01-22T17:53:34.440Z,0
2024-01-22T17:58:38.540Z,0
2024-01-22T18:03:42.887Z,0
2024-01-22T18:08:46.901Z,0
2024-01-22T18:13:51.042Z,0
2024-01-22T18:18:55.391Z,0
2024-01-22T18:23:59.390Z,0
2024-01-22T18:29:03.542Z,0
2024-01-22T18:34:07.783Z,0
2024-01-22T18:39:11.905Z,0
2024-01-22T18:44:15.988Z,0
2024-01-22T18:49:20.289Z,0
2024-01-22T18:54:24.482Z,0
2024-01-22T18:59:28.496Z,0
2024-01-22T19:04:32.832Z,0
2024-01-22T19:09:36.996Z,0
2024-01-22T19:14:41.031Z,0
2024-01-22T19:19:45.230Z,0
2024-01-22T19:24:49.291Z,0
2024-01-22T19:29:53.601Z,0
2024-01-22T19:34:57.713Z,0
2024-01-22T19:40:01.791Z,0
2024-01-22T19:45:06.139Z,0
2024-01-22T19:50:10.227Z,0
2024-01-22T19:55:14.303Z,0
2024-01-22T20:00:18.504Z,0
2024-01-22T20:05:22.685Z,0
2024-01-22T20:10:26.760Z,0
2024-01-22T20:15:31.021Z,0
2024-01-22T20:20:35.130Z,0
2024-01-22T20:25:39.272Z,0
2024-01-22T20:30:43.478Z,0
2024-01-22T20:35:49.403Z,0
2024-01-22T20:40:51.714Z,0
2024-01-22T20:45:55.904Z,0
2024-01-22T20:51:00.131Z,0
2024-01-22T20:56:04.227Z,0
2024-01-22T21:01:08.424Z,0
2024-01-22T21:06:12.767Z,0
2024-01-22T21:11:16.743Z,0
2024-01-22T21:16:20.916Z,0
2024-01-22T21:21:25.124Z,0
2024-01-22T21:26:29.330Z,0
2024-01-22T21:31:33.392Z,0
2024-01-22T21:36:37.550Z,0
2024-01-22T21:41:41.716Z,0
2024-01-22T21:46:45.881Z,0
2024-01-22T21:51:50.022Z,0
2024-01-22T21:56:52.285Z,0
2024-01-22T22:01:56.481Z,0
2024-01-22T22:07:00.643Z,0
2024-01-22T22:12:04.780Z,0
2024-01-22T22:17:08.942Z,0
2024-01-22T22:22:13.130Z,0
2024-01-22T22:27:17.392Z,0
2024-01-22T22:32:21.499Z,0
2024-01-22T22:37:25.576Z,0
2024-01-22T22:42:29.804Z,0
2024-01-22T22:47:33.973Z,0
2024-01-22T22:52:38.045Z,0
2024-01-22T22:57:42.225Z,0
2024-01-22T23:02:46.446Z,0
2024-01-22T23:07:50.544Z,0
2024-01-22T23:12:54.738Z,0
2024-01-22T23:17:58.913Z,0
2024-01-22T23:23:03.063Z,0
2024-01-22T23:28:07.210Z,0
2024-01-22T23:33:11.561Z,0
2024-01-22T23:38:15.552Z,0
2024-01-22T23:43:19.689Z,0
2024-01-22T23:48:23.969Z,0
2024-01-22T23:53:27.993Z,0
2024-01-22T23:58:32.163Z,0
